Time;durP1;ratioP1;P1;durP2;ratioP2;P2;SDS_P1;SDS_P2;PMS_P1;PMS_P2;Temp;Humidity;BMP_temperature;BMP_pressure;BME280_temperature;BME280_humidity;BME280_pressure;Samples;Min_cycle;Max_cycle;Signal;HPM_P1;HPM_P2
2022/04/18 00:03:05;;;;;;;6.45;2.72;;;;;;;6.52;43.81;96080.38;10442971;27;96912;-65
2022/04/18 00:08:08;;;;;;;3.73;1.97;;;;;;;6.44;44.21;96081.84;10450679;27;96861;-65
2022/04/18 00:13:11;;;;;;;2.10;1.60;;;;;;;6.25;44.06;96069.56;10441584;27;97750;-64
2022/04/18 00:18:16;;;;;;;3.67;1.60;;;;;;;5.96;45.02;96068.50;10444947;27;97168;-65
2022/04/18 00:23:18;;;;;;;2.67;1.50;;;;;;;5.94;45.33;96076.41;10451941;27;97928;-65
2022/04/18 00:28:21;;;;;;;2.70;1.40;;;;;;;5.96;45.06;96071.91;10458476;27;97026;-64
2022/04/18 00:33:25;;;;;;;4.22;2.03;;;;;;;6.01;45.60;96068.97;10432163;27;96713;-65
2022/04/18 00:38:29;;;;;;;3.30;1.70;;;;;;;5.92;45.47;96067.94;10437149;27;97094;-65
2022/04/18 00:43:40;;;;;;;2.35;1.63;;;;;;;5.73;46.00;96058.19;10434982;27;96895;-65
2022/04/18 00:48:45;;;;;;;2.80;1.35;;;;;;;5.65;46.29;96056.25;10426555;27;96728;-65
2022/04/18 00:53:49;;;;;;;4.60;2.10;;;;;;;5.44;46.60;96063.09;10418517;27;96691;-65
2022/04/18 00:58:52;;;;;;;3.17;2.00;;;;;;;5.40;46.78;96056.53;10426002;27;96868;-65
2022/04/18 01:03:57;;;;;;;4.50;2.30;;;;;;;5.37;46.85;96061.94;10446392;27;96983;-65
2022/04/18 01:09:00;;;;;;;4.32;2.25;;;;;;;5.24;46.73;96052.53;10426921;27;96827;-65
2022/04/18 01:14:03;;;;;;;4.30;2.20;;;;;;;5.22;46.07;96062.19;10428858;27;96876;-65
2022/04/18 01:19:07;;;;;;;5.95;2.20;;;;;;;5.20;47.25;96060.66;10429310;27;96724;-65
2022/04/18 01:29:28;;;;;;;3.38;1.58;;;;;;;5.08;46.62;96052.91;10440500;27;96703;-65
2022/04/18 01:34:31;;;;;;;4.63;1.60;;;;;;;4.93;47.36;96051.50;10429930;27;97963;-65
2022/04/18 01:39:35;;;;;;;2.45;1.60;;;;;;;4.86;46.31;96050.31;10426554;27;96887;-65
2022/04/18 01:44:39;;;;;;;2.17;1.60;;;;;;;4.66;47.54;96046.63;10424930;27;98162;-64
2022/04/18 01:49:42;;;;;;;2.65;1.60;;;;;;;4.60;48.63;96050.53;10429416;27;96992;-65
2022/04/18 01:54:46;;;;;;;4.78;2.17;;;;;;;4.39;48.88;96045.19;10427882;27;99770;-65
2022/04/18 01:59:49;;;;;;;3.95;1.92;;;;;;;4.34;48.92;96047.28;10447320;27;97174;-65
2022/04/18 02:04:52;;;;;;;2.75;1.92;;;;;;;4.15;49.78;96038.31;10429805;27;96850;-65
2022/04/18 02:09:56;;;;;;;2.35;1.67;;;;;;;4.05;50.96;96037.34;10428085;27;96861;-65
2022/04/18 02:14:59;;;;;;;3.20;1.77;;;;;;;4.08;49.25;96034.53;10423129;27;96891;-65
2022/04/18 02:20:02;;;;;;;3.30;1.63;;;;;;;3.95;49.56;96036.34;10426492;27;96852;-65
2022/04/18 02:25:08;;;;;;;5.07;2.03;;;;;;;3.82;51.75;96037.25;10429920;27;97103;-65
2022/04/18 02:30:11;;;;;;;5.22;2.13;;;;;;;3.68;51.03;96044.38;10446484;27;98682;-65
2022/04/18 02:35:14;;;;;;;2.70;1.80;;;;;;;3.45;52.19;96039.91;10438050;27;96861;-65
2022/04/18 02:40:18;;;;;;;2.22;1.70;;;;;;;3.33;52.82;96035.59;10429754;27;100048;-65
2022/04/18 02:45:21;;;;;;;3.10;2.03;;;;;;;3.29;52.98;96039.31;10428161;27;97107;-65
2022/04/18 02:50:24;;;;;;;2.03;1.60;;;;;;;3.24;52.92;96041.41;10424768;27;96669;-65
2022/04/18 02:55:29;;;;;;;3.33;1.77;;;;;;;3.18;52.98;96037.50;10426035;27;96688;-65
2022/04/18 03:00:31;;;;;;;3.13;2.08;;;;;;;2.82;54.41;96036.53;10437442;27;96962;-65
2022/04/18 03:05:34;;;;;;;3.33;1.73;;;;;;;2.78;54.36;96034.28;10423280;27;97410;-65
2022/04/18 03:15:59;;;;;;;2.13;1.60;;;;;;;2.73;55.15;96026.03;10425282;27;97268;-65
2022/04/18 03:21:03;;;;;;;1.73;1.50;;;;;;;2.71;54.19;96028.69;10435249;27;96746;-65
2022/04/18 03:26:08;;;;;;;2.25;1.80;;;;;;;2.67;54.62;96022.13;10426321;27;96847;-65
2022/04/18 03:31:11;;;;;;;2.00;1.40;;;;;;;2.66;53.61;96020.44;10423825;27;96904;-65
2022/04/18 03:41:35;;;;;;;2.47;1.88;;;;;;;2.48;55.31;96019.94;10452286;27;96951;-65
2022/04/18 03:46:38;;;;;;;2.28;1.67;;;;;;;2.44;54.59;96021.06;10426334;27;96924;-65
2022/04/18 03:51:41;;;;;;;2.80;2.00;;;;;;;2.38;55.46;96017.16;10423749;27;96894;-65
2022/04/18 03:56:45;;;;;;;2.65;1.77;;;;;;;2.21;55.81;96014.88;10420499;27;96644;-65
2022/04/18 04:01:48;;;;;;;2.40;1.70;;;;;;;2.22;55.48;96012.19;10423502;27;96817;-65
2022/04/18 04:06:51;;;;;;;5.75;2.60;;;;;;;2.05;56.81;96015.88;10424024;27;99518;-65
2022/04/18 04:11:55;;;;;;;3.80;2.08;;;;;;;1.98;57.56;96017.22;10440435;27;96937;-65
2022/04/18 04:16:58;;;;;;;3.15;2.20;;;;;;;1.97;57.34;96012.16;10439954;27;98050;-65
2022/04/18 04:22:01;;;;;;;3.15;2.50;;;;;;;1.77;57.92;96018.63;10445011;27;98129;-65
2022/04/18 04:27:06;;;;;;;3.92;2.22;;;;;;;1.79;57.55;96033.03;10447571;27;96795;-65
2022/04/18 04:32:09;;;;;;;2.83;1.95;;;;;;;1.81;57.23;96033.78;10452094;27;96860;-65
2022/04/18 04:37:12;;;;;;;4.82;2.40;;;;;;;1.68;58.15;96033.75;10442848;27;96899;-65
2022/04/18 04:42:17;;;;;;;3.70;2.40;;;;;;;1.47;59.26;96030.78;10424584;27;102695;-65
2022/04/18 04:47:20;;;;;;;4.50;1.93;;;;;;;1.40;58.90;96034.69;10441464;27;96923;-65
2022/04/18 04:52:23;;;;;;;3.10;2.10;;;;;;;1.49;58.37;96022.97;10438175;27;97319;-65
2022/04/18 04:57:27;;;;;;;3.50;2.13;;;;;;;1.65;57.49;96025.38;10441778;27;98047;-65
2022/04/18 05:02:30;;;;;;;3.17;2.00;;;;;;;1.61;58.55;96027.34;10459915;27;96802;-65
2022/04/18 05:07:33;;;;;;;3.63;2.10;;;;;;;1.65;58.54;96033.13;10450994;27;97153;-65
2022/04/18 05:12:37;;;;;;;4.70;2.35;;;;;;;1.73;57.98;96036.03;10442029;27;98579;-65
2022/04/18 05:17:40;;;;;;;2.60;2.00;;;;;;;1.84;57.72;96041.31;10446874;27;96927;-65
2022/04/18 05:22:43;;;;;;;2.80;2.45;;;;;;;1.86;57.60;96052.31;10440760;27;97069;-65
2022/04/18 05:27:47;;;;;;;2.38;2.00;;;;;;;1.86;59.17;96054.91;10440786;27;96759;-65
2022/04/18 05:32:50;;;;;;;3.85;2.47;;;;;;;1.98;58.52;96057.63;10435109;27;96735;-65
2022/04/18 05:37:53;;;;;;;3.65;2.25;;;;;;;2.16;57.31;96053.81;10431622;27;97941;-65
2022/04/18 05:42:57;;;;;;;2.25;2.00;;;;;;;2.35;57.67;96057.78;10424394;27;97187;-65
2022/04/18 05:48:00;;;;;;;2.90;2.20;;;;;;;2.44;58.68;96059.75;10455722;27;96910;-65
2022/04/18 05:53:03;;;;;;;2.72;2.05;;;;;;;2.62;58.31;96055.94;10429237;27;96965;-65
2022/04/18 05:58:07;;;;;;;3.13;2.20;;;;;;;2.85;57.24;96056.13;10432996;27;101041;-65
2022/04/18 06:03:11;;;;;;;3.13;2.20;;;;;;;2.94;56.33;96065.00;10446272;27;97180;-65
2022/04/18 06:08:14;;;;;;;2.55;1.85;;;;;;;3.04;56.08;96061.69;10449382;27;97336;-65
2022/04/18 06:13:20;;;;;;;3.28;2.10;;;;;;;3.11;54.79;96058.69;10435470;27;96940;-65
2022/04/18 06:18:23;;;;;;;3.85;1.88;;;;;;;3.20;53.75;96071.75;10438754;27;97403;-65
2022/04/18 06:23:26;;;;;;;2.47;1.98;;;;;;;3.30;54.12;96071.13;10429926;27;99331;-65
2022/04/18 06:28:31;;;;;;;2.28;1.70;;;;;;;3.39;53.32;96067.91;10426911;27;96690;-65
2022/04/18 06:33:34;;;;;;;2.78;1.98;;;;;;;3.50;52.00;96064.56;10440148;27;96971;-65
2022/04/18 06:38:37;;;;;;;3.25;2.10;;;;;;;3.59;51.47;96063.94;10429500;27;96908;-65
2022/04/18 06:43:41;;;;;;;3.17;2.10;;;;;;;3.77;51.72;96065.19;10437627;27;97034;-65
2022/04/18 06:48:44;;;;;;;4.03;2.23;;;;;;;3.82;51.02;96063.09;10424367;27;96748;-65
2022/04/18 06:53:47;;;;;;;2.95;2.28;;;;;;;3.98;50.79;96064.56;10419437;27;99072;-65
2022/04/18 06:58:51;;;;;;;3.85;2.40;;;;;;;4.14;50.91;96054.78;10451776;27;96854;-65
2022/04/18 07:03:54;;;;;;;4.18;2.80;;;;;;;4.41;52.17;96064.00;10439719;27;97242;-65
2022/04/18 07:08:58;;;;;;;3.20;2.63;;;;;;;4.66;52.21;96062.16;10423425;27;97692;-65
2022/04/18 07:14:02;;;;;;;3.35;2.45;;;;;;;5.10;52.82;96070.91;10433369;27;99169;-65
2022/04/18 07:19:05;;;;;;;4.57;3.00;;;;;;;5.35;51.41;96064.63;10437880;27;98386;-65
2022/04/18 07:24:08;;;;;;;3.97;2.90;;;;;;;5.44;51.30;96068.28;10442260;27;96823;-65
2022/04/18 07:29:12;;;;;;;3.72;2.53;;;;;;;5.69;51.61;96065.41;10429041;27;98571;-65
2022/04/18 07:34:15;;;;;;;3.67;2.85;;;;;;;5.96;50.97;96068.50;10440475;27;97798;-65
2022/04/18 07:39:18;;;;;;;2.65;2.40;;;;;;;6.04;50.60;96066.13;10419680;27;100755;-65
2022/04/18 07:44:22;;;;;;;4.03;2.63;;;;;;;6.23;51.01;96060.28;10427400;27;96924;-65
2022/04/18 07:49:25;;;;;;;4.27;3.23;;;;;;;6.50;50.87;96061.53;10424731;27;98984;-65
2022/04/18 07:54:28;;;;;;;6.35;3.00;;;;;;;6.79;50.43;96062.53;10421428;27;96696;-65
2022/04/18 07:59:32;;;;;;;4.45;3.25;;;;;;;6.99;50.20;96063.47;10424379;27;103114;-65
2022/04/18 08:04:38;;;;;;;4.05;2.90;;;;;;;7.15;49.66;96062.19;10425352;27;96965;-65
2022/04/18 08:09:41;;;;;;;3.70;2.80;;;;;;;7.31;49.37;96061.69;10433231;27;97794;-65
2022/04/18 08:14:45;;;;;;;4.43;2.85;;;;;;;7.44;49.33;96049.28;10432634;27;96803;-65
2022/04/18 08:19:48;;;;;;;3.83;3.05;;;;;;;7.57;48.78;96052.44;10425595;27;98748;-65
2022/04/18 08:24:51;;;;;;;3.00;2.67;;;;;;;7.71;48.63;96050.44;10431311;27;96954;-65
2022/04/18 08:29:55;;;;;;;3.50;2.65;;;;;;;7.87;48.48;96050.72;10428048;27;98142;-65
2022/04/18 08:34:58;;;;;;;3.70;3.13;;;;;;;8.04;47.94;96053.63;10431803;27;96823;-65
2022/04/18 08:40:01;;;;;;;3.83;2.53;;;;;;;8.28;47.61;96051.41;10428795;27;96923;-65
2022/04/18 08:45:07;;;;;;;3.10;2.53;;;;;;;8.52;47.76;96052.75;10434902;27;98341;-64
2022/04/18 08:55:31;;;;;;;4.22;2.80;;;;;;;8.82;47.15;96049.13;10429073;27;102694;-65
2022/04/18 09:00:36;;;;;;;3.33;2.60;;;;;;;8.81;47.27;96044.91;10429926;27;96882;-65
2022/04/18 09:05:39;;;;;;;4.67;2.60;;;;;;;8.85;47.28;96043.63;10425226;27;98468;-65
2022/04/18 09:10:43;;;;;;;4.13;2.92;;;;;;;9.05;47.80;96039.16;10432839;27;97092;-64
2022/04/18 09:15:49;;;;;;;4.20;2.95;;;;;;;9.21;47.23;96032.53;10428619;27;96790;-64
2022/04/18 09:20:54;;;;;;;4.25;2.80;;;;;;;9.36;47.11;96025.88;10418189;27;96870;-64
2022/04/18 09:26:01;;;;;;;4.78;2.88;;;;;;;9.49;46.64;96022.97;10427750;27;96924;-65
2022/04/18 09:31:07;;;;;;;5.15;3.08;;;;;;;9.62;47.04;96020.00;10437437;27;96828;-65
2022/04/18 09:36:12;;;;;;;3.38;2.50;;;;;;;9.76;46.85;96016.06;10449698;27;97792;-65
2022/04/18 09:41:21;;;;;;;3.20;2.80;;;;;;;9.82;46.99;96016.28;10429760;27;98911;-64
2022/04/18 09:46:26;;;;;;;4.15;3.00;;;;;;;9.96;46.86;96008.91;10429668;27;96901;-65
2022/04/18 09:51:33;;;;;;;3.20;2.80;;;;;;;10.08;46.25;95999.88;10435550;27;96777;-64
2022/04/18 09:56:36;;;;;;;4.30;3.10;;;;;;;10.26;45.81;95996.44;10435461;27;98380;-64
2022/04/18 10:01:41;;;;;;;4.57;2.95;;;;;;;10.43;46.31;95998.19;10448907;27;98459;-65
2022/04/18 10:06:46;;;;;;;3.33;2.97;;;;;;;10.46;45.51;95987.44;10435561;27;97273;-64
2022/04/18 10:11:49;;;;;;;3.85;3.00;;;;;;;10.59;45.76;95976.56;10428594;27;96741;-64
2022/04/18 10:16:54;;;;;;;4.32;3.05;;;;;;;10.79;46.04;95974.56;10422232;27;96747;-65
2022/04/18 10:22:08;;;;;;;4.38;2.88;;;;;;;10.98;45.71;95970.88;10426610;27;97793;-65
2022/04/18 10:27:49;;;;;;;4.45;2.60;;;;;;;11.38;45.51;95960.75;10434875;27;96800;-64
2022/04/18 10:32:54;;;;;;;6.75;3.13;;;;;;;11.43;45.13;95958.50;10420583;27;96887;-65
2022/04/18 10:37:57;;;;;;;;;;;;;;;11.59;44.75;95958.53;10421413;27;96906;-65
2022/04/18 10:43:00;;;;;;;4.05;3.20;;;;;;;11.82;44.65;95947.44;10438261;27;97631;-64
2022/04/18 10:48:10;;;;;;;4.55;3.15;;;;;;;11.92;44.53;95933.22;10418820;27;96760;-64
2022/04/18 10:53:16;;;;;;;3.88;3.17;;;;;;;12.03;44.36;95918.97;10422904;27;97145;-64
2022/04/18 10:58:22;;;;;;;4.53;3.15;;;;;;;12.12;44.30;95917.16;10426958;27;97469;-65
2022/04/18 11:03:43;;;;;;;4.10;2.83;;;;;;;12.29;44.16;95912.72;10421615;27;96728;-65
2022/04/18 11:08:58;;;;;;;5.75;3.47;;;;;;;12.29;43.76;95908.31;10435038;27;97295;-64
2022/04/18 11:14:02;;;;;;;5.15;3.75;;;;;;;12.31;43.72;95900.28;10414625;28;99203;-65
2022/04/18 11:19:07;;;;;;;4.95;3.28;;;;;;;12.56;43.88;95889.75;10404494;27;96892;-64
2022/04/18 11:24:30;;;;;;;;;;;;;;;12.91;43.93;95880.66;10434260;27;97461;-64
2022/04/18 11:29:34;;;;;;;4.75;3.20;;;;;;;12.98;42.74;95875.53;10412831;27;96912;-64
2022/04/18 11:34:38;;;;;;;5.22;3.30;;;;;;;13.14;43.34;95877.25;10427953;27;99190;-64
2022/04/18 11:39:46;;;;;;;5.43;3.03;;;;;;;13.34;43.18;95864.50;10417040;27;98790;-64
2022/04/18 11:44:50;;;;;;;5.68;3.22;;;;;;;13.64;42.87;95854.94;10421567;27;96872;-64
2022/04/18 11:50:01;;;;;;;4.53;3.60;;;;;;;13.87;41.73;95844.41;10432483;27;97399;-65
2022/04/18 11:55:05;;;;;;;3.67;2.80;;;;;;;13.76;41.27;95856.16;10429998;27;98605;-65
2022/04/18 12:00:09;;;;;;;;;;;;;;;13.86;41.78;95848.00;10418899;27;96808;-64
2022/04/18 12:10:41;;;;;;;4.35;3.20;;;;;;;14.28;41.50;95836.13;10423394;27;97816;-64
2022/04/18 12:15:44;;;;;;;3.92;3.00;;;;;;;14.46;41.55;95835.00;10422822;27;96838;-65
2022/04/18 12:20:50;;;;;;;3.92;3.50;;;;;;;14.60;41.04;95818.38;10418450;27;96727;-65
2022/04/18 12:25:55;;;;;;;4.80;3.58;;;;;;;14.93;41.17;95817.97;10421226;27;96884;-64
2022/04/18 12:30:58;;;;;;;4.03;3.17;;;;;;;15.27;40.88;95813.88;10427208;27;96906;-64
2022/04/18 12:36:03;;;;;;;4.32;3.28;;;;;;;15.49;40.43;95801.53;10418930;27;96787;-65
2022/04/18 12:41:06;;;;;;;4.80;3.50;;;;;;;15.59;39.55;95801.25;10437515;27;96943;-64
2022/04/18 12:46:10;;;;;;;4.25;3.50;;;;;;;15.71;40.44;95793.66;10423443;27;96810;-64
2022/04/18 12:51:15;;;;;;;3.78;3.15;;;;;;;15.92;39.90;95790.16;10436131;27;96843;-64
2022/04/18 12:56:21;;;;;;;5.68;3.40;;;;;;;15.90;39.03;95776.38;10455697;27;97031;-65
2022/04/18 13:01:25;;;;;;;3.72;3.00;;;;;;;15.98;39.41;95779.66;10430028;27;96847;-65
2022/04/18 13:06:31;;;;;;;4.10;3.15;;;;;;;16.14;38.29;95773.28;10427402;27;96762;-65
2022/04/18 13:11:39;;;;;;;3.38;2.60;;;;;;;16.36;37.62;95767.91;10437401;27;96831;-64
2022/04/18 13:16:43;;;;;;;7.45;4.85;;;;;;;16.43;38.66;95760.84;10434426;27;98164;-64
2022/04/18 13:21:47;;;;;;;3.73;2.70;;;;;;;16.80;37.75;95758.78;10420392;27;98553;-64
2022/04/18 13:26:50;;;;;;;3.80;2.88;;;;;;;17.00;38.41;95746.47;10420065;27;100135;-64
2022/04/18 13:31:53;;;;;;;5.75;3.45;;;;;;;17.33;37.78;95743.03;10433281;27;98757;-64
2022/04/18 13:36:58;;;;;;;3.33;2.50;;;;;;;17.02;37.51;95732.25;10440104;27;96918;-64
2022/04/18 13:42:00;;;;;;;3.67;3.20;;;;;;;17.13;37.20;95736.94;10448229;27;96937;-64
2022/04/18 13:47:04;;;;;;;2.95;2.60;;;;;;;16.76;37.37;95733.81;10464371;27;96845;-64
2022/04/18 13:52:09;;;;;;;12.70;8.15;;;;;;;16.80;38.11;95724.50;10451948;27;96751;-64
2022/04/18 13:57:12;;;;;;;9.10;6.03;;;;;;;17.19;37.71;95723.72;10437189;27;96916;-64
2022/04/18 14:02:16;;;;;;;5.13;2.90;;;;;;;17.64;37.31;95717.84;10419105;27;97568;-64
2022/04/18 14:07:20;;;;;;;3.23;2.47;;;;;;;18.07;36.67;95714.75;10440757;27;100993;-64
2022/04/18 14:12:23;;;;;;;2.90;2.05;;;;;;;18.28;36.88;95710.22;10442582;27;97235;-64
2022/04/18 14:22:47;;;;;;;5.13;4.15;;;;;;;19.19;36.34;95706.53;10435876;27;96842;-64
2022/04/18 14:27:50;;;;;;;2.75;2.30;;;;;;;19.43;35.34;95706.72;10441706;27;97597;-64
2022/04/18 14:32:53;;;;;;;3.70;2.28;;;;;;;19.52;35.13;95700.16;10450496;27;96902;-64
2022/04/18 14:37:58;;;;;;;5.97;3.63;;;;;;;19.85;35.16;95693.75;10427366;27;97351;-64
2022/04/18 14:43:01;;;;;;;;;;;;;;;19.71;35.57;95686.94;10445960;27;97067;-64
2022/04/18 14:48:04;;;;;;;3.60;1.98;;;;;;;19.10;36.43;95686.63;10455816;27;97398;-64
2022/04/18 14:53:12;;;;;;;2.75;2.38;;;;;;;18.99;36.06;95680.19;10453025;27;97394;-63
2022/04/18 14:58:16;;;;;;;3.15;2.00;;;;;;;19.38;34.95;95677.44;10446083;27;97472;-64
2022/04/18 15:03:19;;;;;;;4.77;2.40;;;;;;;19.53;35.05;95672.63;10451614;27;97266;-63
2022/04/18 15:08:23;;;;;;;8.82;6.47;;;;;;;19.79;34.56;95676.06;10456505;27;97451;-64
2022/04/18 15:13:26;;;;;;;2.95;2.05;;;;;;;19.71;34.66;95671.03;10440152;27;97306;-64
2022/04/18 15:18:29;;;;;;;2.92;1.75;;;;;;;19.99;34.98;95668.72;10430692;27;96771;-64
2022/04/18 15:23:34;;;;;;;2.90;1.80;;;;;;;20.59;34.32;95664.53;10449171;27;98123;-64
2022/04/18 15:28:38;;;;;;;5.20;2.20;;;;;;;20.90;33.96;95658.22;10443805;27;97006;-64
2022/04/18 15:33:41;;;;;;;2.22;1.77;;;;;;;21.25;33.39;95659.31;10442974;27;98489;-64
2022/04/18 15:38:46;;;;;;;2.10;1.85;;;;;;;21.27;32.70;95659.91;10445711;27;97133;-64
2022/04/18 15:43:48;;;;;;;;;;;;;;;21.49;33.43;95662.81;10444191;27;97162;-64
2022/04/18 15:48:51;;;;;;;2.92;2.05;;;;;;;21.57;32.50;95661.66;10453819;27;96802;-64
2022/04/18 15:53:55;;;;;;;2.65;1.52;;;;;;;21.54;32.30;95662.13;10456064;27;97153;-64
2022/04/18 15:59:00;;;;;;;;;;;;;;;21.88;32.53;95656.00;10453060;27;97274;-64
2022/04/18 16:04:05;;;;;;;1.20;1.10;;;;;;;22.15;30.86;95657.34;10440308;27;100195;-64
2022/04/18 16:09:09;;;;;;;1.80;1.20;;;;;;;22.72;29.89;95651.28;10442649;27;96680;-64
2022/04/18 16:14:12;;;;;;;1.02;0.90;;;;;;;22.92;28.98;95656.97;10440117;27;96893;-65
2022/04/18 16:19:15;;;;;;;1.93;0.70;;;;;;;22.94;27.37;95648.72;10431048;27;98697;-65
2022/04/18 16:24:20;;;;;;;1.98;1.10;;;;;;;22.97;27.61;95654.38;10434216;27;98703;-64
2022/04/18 16:34:43;;;;;;;1.13;0.80;;;;;;;23.15;25.81;95661.38;10453119;27;96746;-64
2022/04/18 16:39:48;;;;;;;1.27;0.88;;;;;;;23.40;25.63;95657.53;10449526;27;96782;-63
2022/04/18 16:50:11;;;;;;;1.42;1.00;;;;;;;23.84;24.99;95654.16;10444082;27;96903;-63
2022/04/18 16:55:16;;;;;;;1.05;0.60;;;;;;;23.61;23.91;95652.50;10443225;27;97151;-63
2022/04/18 17:00:19;;;;;;;2.00;0.98;;;;;;;23.26;24.03;95657.00;10450320;27;97558;-64
2022/04/18 17:05:22;;;;;;;0.83;0.60;;;;;;;22.78;24.60;95650.31;10431923;27;97196;-64
2022/04/18 17:10:27;;;;;;;0.90;0.60;;;;;;;22.18;24.63;95651.53;10438629;27;98495;-63
2022/04/18 17:15:29;;;;;;;1.10;0.70;;;;;;;21.67;25.08;95653.94;10455610;27;96881;-63
2022/04/18 17:20:33;;;;;;;1.73;0.90;;;;;;;21.02;25.64;95644.16;10448734;27;100079;-64
2022/04/18 17:25:37;;;;;;;1.02;0.70;;;;;;;20.34;26.08;95659.38;10441960;27;97074;-63
2022/04/18 17:30:40;;;;;;;1.15;0.95;;;;;;;19.38;28.69;95656.25;10452214;27;100093;-63
2022/04/18 17:35:43;;;;;;;2.78;1.85;;;;;;;18.61;30.55;95662.47;10438452;27;98567;-63
2022/04/18 17:40:47;;;;;;;6.18;3.13;;;;;;;17.87;32.34;95661.16;10445198;27;97045;-63
2022/04/18 17:45:50;;;;;;;4.75;2.53;;;;;;;17.49;32.94;95664.44;10446210;27;96756;-64
2022/04/18 17:50:53;;;;;;;2.00;1.00;;;;;;;17.04;34.09;95666.88;10434073;27;97066;-63
2022/04/18 17:55:59;;;;;;;2.47;1.40;;;;;;;16.61;35.32;95674.09;10446343;27;96962;-63
2022/04/18 18:01:02;;;;;;;1.73;0.80;;;;;;;16.13;36.09;95671.50;10438648;27;98850;-63
2022/04/18 18:06:05;;;;;;;1.98;1.02;;;;;;;15.60;36.92;95677.31;10454197;27;96745;-63
2022/04/18 18:11:10;;;;;;;2.60;1.08;;;;;;;15.31;36.94;95683.56;10454300;27;96950;-63
2022/04/18 18:16:12;;;;;;;2.22;1.50;;;;;;;14.77;38.95;95677.03;10452197;27;97039;-63
2022/04/18 18:21:16;;;;;;;2.05;0.90;;;;;;;14.51;39.44;95678.38;10452216;27;98300;-64
2022/04/18 18:26:20;;;;;;;2.28;1.60;;;;;;;14.18;40.39;95684.03;10447427;27;97008;-63
2022/04/18 18:31:23;;;;;;;3.20;1.60;;;;;;;14.07;39.56;95681.06;10452521;27;98694;-63
2022/04/18 18:36:29;;;;;;;4.55;1.90;;;;;;;13.95;40.87;95685.94;10451460;27;96815;-63
2022/04/18 18:41:33;;;;;;;5.07;2.70;;;;;;;13.81;41.65;95687.56;10444226;27;102596;-63
2022/04/18 18:46:36;;;;;;;3.00;2.20;;;;;;;13.40;42.16;95688.03;10430159;27;98871;-64
2022/04/18 18:57:00;;;;;;;2.80;1.65;;;;;;;12.87;44.31;95696.63;10439030;27;97238;-64
2022/04/18 19:02:04;;;;;;;2.93;2.20;;;;;;;12.92;44.04;95703.19;10430173;27;97707;-64
2022/04/18 19:07:07;;;;;;;1.92;1.55;;;;;;;13.09;43.36;95702.06;10423820;27;101176;-64
2022/04/18 19:12:11;;;;;;;2.80;1.50;;;;;;;12.91;43.75;95712.03;10428155;27;98959;-64
2022/04/18 19:27:56;;;;;;;6.28;4.07;;;;;;;12.99;44.76;95720.66;10442404;27;98948;-64
2022/04/18 19:32:59;;;;;;;7.13;4.50;;;;;;;12.95;44.33;95726.44;10433108;27;98436;-64
2022/04/18 19:38:02;;;;;;;18.38;12.05;;;;;;;12.99;44.51;95725.06;10430914;27;98735;-64
2022/04/18 19:43:06;;;;;;;10.45;6.28;;;;;;;12.93;44.82;95717.94;10433033;27;97890;-64
2022/04/18 19:48:11;;;;;;;12.23;6.72;;;;;;;12.54;46.11;95722.22;10435862;27;97541;-64
2022/04/18 19:53:14;;;;;;;14.93;8.70;;;;;;;12.19;46.55;95723.56;10447968;27;98009;-64
2022/04/18 19:58:19;;;;;;;12.10;7.53;;;;;;;12.27;46.48;95720.91;10444284;27;97194;-64
2022/04/18 20:03:23;;;;;;;6.60;4.07;;;;;;;12.27;46.41;95723.53;10450749;27;97347;-64
2022/04/18 20:08:27;;;;;;;;;;;;;;;12.23;46.04;95709.97;10455465;27;96726;-64
2022/04/18 20:13:32;;;;;;;5.78;3.80;;;;;;;12.17;46.81;95715.06;10453405;27;96764;-64
2022/04/18 20:18:36;;;;;;;8.18;3.70;;;;;;;12.11;47.03;95722.59;10452486;27;96971;-64
2022/04/18 20:23:41;;;;;;;6.22;2.83;;;;;;;11.78;48.60;95718.44;10456749;27;97283;-65
2022/04/18 20:28:46;;;;;;;8.48;3.45;;;;;;;11.72;47.86;95723.38;10451793;27;97132;-64
2022/04/18 20:33:49;;;;;;;5.68;2.88;;;;;;;11.69;47.66;95728.97;10455927;27;96709;-64
2022/04/18 20:38:53;;;;;;;7.00;3.40;;;;;;;11.63;48.86;95734.84;10454817;27;97926;-64
2022/04/18 20:44:02;;;;;;;9.27;4.22;;;;;;;11.30;49.81;95729.63;10442100;27;98269;-64
2022/04/18 20:49:06;;;;;;;6.68;4.25;;;;;;;10.86;51.32;95732.56;10451272;27;97326;-64
2022/04/18 20:59:31;;;;;;;7.32;3.45;;;;;;;10.59;51.87;95731.84;10438252;27;97796;-64
2022/04/18 21:04:34;;;;;;;6.47;3.63;;;;;;;10.50;51.62;95732.81;10440704;27;101457;-64
2022/04/18 21:09:36;;;;;;;7.45;3.47;;;;;;;10.42;52.07;95723.16;10449159;27;96942;-64
2022/04/18 21:14:41;;;;;;;6.13;3.33;;;;;;;10.37;51.89;95722.84;10451130;27;97117;-64
2022/04/18 21:19:45;;;;;;;8.40;3.73;;;;;;;10.35;51.76;95723.97;10439746;27;99216;-64
2022/04/18 21:24:48;;;;;;;5.67;2.93;;;;;;;10.11;52.62;95724.69;10463060;27;96839;-64
2022/04/18 21:29:52;;;;;;;7.50;3.70;;;;;;;10.04;52.57;95721.91;10456041;27;96716;-64
2022/04/18 21:34:55;;;;;;;10.43;4.40;;;;;;;10.09;51.77;95724.84;10438562;27;97924;-64
2022/04/18 21:39:58;;;;;;;7.82;4.10;;;;;;;10.02;51.92;95719.44;10446045;27;103200;-64
2022/04/18 21:45:02;;;;;;;7.13;3.70;;;;;;;9.74;52.47;95715.41;10441961;27;97030;-64
2022/04/18 21:50:06;;;;;;;8.27;3.85;;;;;;;9.67;52.67;95710.00;10436074;27;96859;-64
2022/04/18 21:55:11;;;;;;;3.22;1.95;;;;;;;9.80;52.68;95706.94;10432468;27;96855;-64
2022/04/18 22:00:33;;;;;;;;;;;;;;;9.64;52.22;95711.09;10458218;27;96921;-64
2022/04/18 22:05:36;;;;;;;6.75;2.95;;;;;;;9.57;52.23;95699.66;10458138;27;96935;-64
2022/04/18 22:10:39;;;;;;;3.60;2.40;;;;;;;9.60;52.42;95695.94;10439452;27;97302;-64
2022/04/18 22:15:44;;;;;;;4.22;2.40;;;;;;;9.44;52.30;95699.28;10449470;27;96933;-64
2022/04/18 22:26:07;;;;;;;6.60;3.10;;;;;;;9.35;52.73;95693.16;10446195;27;96844;-64
2022/04/18 22:31:11;;;;;;;4.70;2.97;;;;;;;9.04;54.10;95693.59;10428059;27;97986;-64
2022/04/18 22:36:14;;;;;;;6.25;3.25;;;;;;;8.83;54.90;95700.91;10448862;27;97123;-64
2022/04/18 22:41:18;;;;;;;4.05;2.45;;;;;;;8.66;55.24;95690.38;10447210;27;96917;-64
2022/04/18 22:46:22;;;;;;;3.00;1.90;;;;;;;8.48;56.67;95697.34;10436464;27;96922;-64
2022/04/18 22:51:25;;;;;;;3.08;1.67;;;;;;;8.33;56.70;95700.47;10435531;27;96795;-64
2022/04/18 22:56:28;;;;;;;2.30;1.50;;;;;;;8.30;56.44;95705.16;10436956;27;96766;-64
2022/04/18 23:01:33;;;;;;;2.40;1.70;;;;;;;8.25;55.84;95692.56;10429832;27;96808;-64
2022/04/18 23:06:36;;;;;;;1.75;1.38;;;;;;;8.35;55.42;95682.91;10424319;27;96862;-64
2022/04/18 23:11:39;;;;;;;2.65;1.75;;;;;;;8.31;55.42;95686.78;10432823;27;97561;-64
2022/04/18 23:16:43;;;;;;;1.98;1.25;;;;;;;8.19;56.46;95687.97;10430835;27;96980;-64
2022/04/18 23:21:46;;;;;;;2.53;1.55;;;;;;;8.16;55.98;95683.03;10432778;27;98947;-64
2022/04/18 23:26:49;;;;;;;3.38;2.15;;;;;;;7.89;57.33;95676.91;10441587;27;96808;-64
2022/04/18 23:31:53;;;;;;;2.47;1.83;;;;;;;7.49;58.50;95680.63;10427126;27;98793;-64
2022/04/18 23:36:56;;;;;;;2.85;2.03;;;;;;;7.53;57.99;95676.78;10444912;27;97017;-64
2022/04/18 23:41:58;;;;;;;3.20;1.90;;;;;;;7.59;58.27;95665.78;10433382;27;97416;-64
2022/04/18 23:47:03;;;;;;;3.58;1.40;;;;;;;7.52;57.83;95669.94;10432398;27;100718;-64
2022/04/18 23:52:06;;;;;;;3.03;1.50;;;;;;;7.51;57.53;95673.50;10439549;27;97093;-64
2022/04/18 23:57:09;;;;;;;1.85;1.52;;;;;;;7.51;57.74;95660.53;10422749;27;96793;-64
